<?xml version="1.0" encoding="UTF-8" standalone="no" ?>
<gpx xmlns="http://www.topografix.com/GPX/1/1" xmlns:xsi="http://www.w3.org/2001/XMLSchema-instance" xsi:schemaLocation="http://www.topografix.com/GPX/1/1 http://www.topografix.com/GPX/1/1/gpx.xsd" version="1.1" creator="VisuGPX - https://www.visugpx.com">
  <metadata>
    <name>Banne Les Sauts</name>
    <desc><![CDATA[Promenade vers Les Lauses, avec passage d'un gué de plots en plots.
]]></desc>
  </metadata>
  <trk>
    <name><![CDATA[2018-02-16 16:06:01]]></name>
    <trkseg>
      <trkpt lat="44.36671" lon="4.15502">
        <ele>278.44</ele>
        <time>2018-02-16T12:30:48Z</time>
      </trkpt>
      <trkpt lat="44.36675" lon="4.15516">
        <ele>277.48</ele>
        <time>2018-02-16T12:32:15Z</time>
      </trkpt>
      <trkpt lat="44.36708" lon="4.1553">
        <ele>271.71</ele>
        <time>2018-02-16T12:33:04Z</time>
      </trkpt>
      <trkpt lat="44.36764" lon="4.15512">
        <ele>266.42</ele>
        <time>2018-02-16T12:34:10Z</time>
      </trkpt>
      <trkpt lat="44.36772" lon="4.15466">
        <ele>270.75</ele>
        <time>2018-02-16T12:34:42Z</time>
      </trkpt>
      <trkpt lat="44.36772" lon="4.15423">
        <ele>270.75</ele>
        <time>2018-02-16T12:35:14Z</time>
      </trkpt>
      <trkpt lat="44.368" lon="4.15409">
        <ele>263.54</ele>
        <time>2018-02-16T12:36:36Z</time>
      </trkpt>
      <trkpt lat="44.36784" lon="4.15367">
        <ele>261.14</ele>
        <time>2018-02-16T12:37:09Z</time>
      </trkpt>
      <trkpt lat="44.36767" lon="4.15324">
        <ele>257.77</ele>
        <time>2018-02-16T12:37:44Z</time>
      </trkpt>
      <trkpt lat="44.36786" lon="4.15284">
        <ele>253.44</ele>
        <time>2018-02-16T12:38:22Z</time>
      </trkpt>
      <trkpt lat="44.36809" lon="4.15337">
        <ele>249.6</ele>
        <time>2018-02-16T12:39:08Z</time>
      </trkpt>
      <trkpt lat="44.36831" lon="4.15369">
        <ele>246.72</ele>
        <time>2018-02-16T12:39:41Z</time>
      </trkpt>
      <trkpt lat="44.3687" lon="4.15427">
        <ele>241.43</ele>
        <time>2018-02-16T12:40:36Z</time>
      </trkpt>
      <trkpt lat="44.36935" lon="4.15439">
        <ele>233.74</ele>
        <time>2018-02-16T12:41:43Z</time>
      </trkpt>
      <trkpt lat="44.37019" lon="4.15521">
        <ele>224.12</ele>
        <time>2018-02-16T12:43:23Z</time>
      </trkpt>
      <trkpt lat="44.37095" lon="4.15605">
        <ele>206.34</ele>
        <time>2018-02-16T12:45:07Z</time>
      </trkpt>
      <trkpt lat="44.37099" lon="4.1565">
        <ele>203.46</ele>
        <time>2018-02-16T12:45:43Z</time>
      </trkpt>
      <trkpt lat="44.37102" lon="4.15699">
        <ele>200.57</ele>
        <time>2018-02-16T12:46:16Z</time>
      </trkpt>
      <trkpt lat="44.37114" lon="4.15743">
        <ele>196.73</ele>
        <time>2018-02-16T12:46:52Z</time>
      </trkpt>
      <trkpt lat="44.37131" lon="4.15782">
        <ele>191.44</ele>
        <time>2018-02-16T12:47:35Z</time>
      </trkpt>
      <trkpt lat="44.3715" lon="4.15823">
        <ele>189.04</ele>
        <time>2018-02-16T12:48:44Z</time>
      </trkpt>
      <trkpt lat="44.37182" lon="4.15849">
        <ele>185.67</ele>
        <time>2018-02-16T12:49:24Z</time>
      </trkpt>
      <trkpt lat="44.3723" lon="4.15858">
        <ele>179.9</ele>
        <time>2018-02-16T12:50:18Z</time>
      </trkpt>
      <trkpt lat="44.37239" lon="4.159">
        <ele>177.02</ele>
        <time>2018-02-16T12:50:50Z</time>
      </trkpt>
      <trkpt lat="44.37266" lon="4.15959">
        <ele>170.29</ele>
        <time>2018-02-16T12:52:01Z</time>
      </trkpt>
      <trkpt lat="44.3728" lon="4.16044">
        <ele>163.08</ele>
        <time>2018-02-16T12:53:12Z</time>
      </trkpt>
      <trkpt lat="44.3728" lon="4.16089">
        <ele>161.16</ele>
        <time>2018-02-16T12:55:26Z</time>
      </trkpt>
      <trkpt lat="44.37236" lon="4.16105">
        <ele>159.72</ele>
        <time>2018-02-16T12:56:23Z</time>
      </trkpt>
      <trkpt lat="44.37196" lon="4.16107">
        <ele>160.68</ele>
        <time>2018-02-16T12:57:10Z</time>
      </trkpt>
      <trkpt lat="44.37156" lon="4.16109">
        <ele>159.24</ele>
        <time>2018-02-16T12:57:52Z</time>
      </trkpt>
      <trkpt lat="44.37119" lon="4.16114">
        <ele>158.75</ele>
        <time>2018-02-16T12:58:29Z</time>
      </trkpt>
      <trkpt lat="44.3708" lon="4.16121">
        <ele>156.35</ele>
        <time>2018-02-16T12:59:05Z</time>
      </trkpt>
      <trkpt lat="44.37051" lon="4.16136">
        <ele>155.39</ele>
        <time>2018-02-16T12:59:35Z</time>
      </trkpt>
      <trkpt lat="44.37025" lon="4.16153">
        <ele>155.39</ele>
        <time>2018-02-16T13:00:04Z</time>
      </trkpt>
      <trkpt lat="44.37003" lon="4.16174">
        <ele>155.39</ele>
        <time>2018-02-16T13:00:32Z</time>
      </trkpt>
      <trkpt lat="44.36987" lon="4.16194">
        <ele>155.39</ele>
        <time>2018-02-16T13:01:51Z</time>
      </trkpt>
      <trkpt lat="44.36967" lon="4.16219">
        <ele>155.87</ele>
        <time>2018-02-16T13:02:20Z</time>
      </trkpt>
      <trkpt lat="44.36949" lon="4.16241">
        <ele>156.83</ele>
        <time>2018-02-16T13:03:10Z</time>
      </trkpt>
      <trkpt lat="44.36932" lon="4.1627">
        <ele>156.83</ele>
        <time>2018-02-16T13:03:32Z</time>
      </trkpt>
      <trkpt lat="44.36917" lon="4.16299">
        <ele>155.87</ele>
        <time>2018-02-16T13:04:33Z</time>
      </trkpt>
      <trkpt lat="44.36902" lon="4.16329">
        <ele>155.39</ele>
        <time>2018-02-16T13:04:55Z</time>
      </trkpt>
      <trkpt lat="44.36897" lon="4.16368">
        <ele>155.39</ele>
        <time>2018-02-16T13:05:16Z</time>
      </trkpt>
      <trkpt lat="44.36891" lon="4.16406">
        <ele>155.39</ele>
        <time>2018-02-16T13:05:54Z</time>
      </trkpt>
      <trkpt lat="44.36884" lon="4.16446">
        <ele>154.91</ele>
        <time>2018-02-16T13:06:14Z</time>
      </trkpt>
      <trkpt lat="44.36875" lon="4.16482">
        <ele>154.91</ele>
        <time>2018-02-16T13:06:34Z</time>
      </trkpt>
      <trkpt lat="44.36869" lon="4.1652">
        <ele>154.91</ele>
        <time>2018-02-16T13:06:55Z</time>
      </trkpt>
      <trkpt lat="44.36865" lon="4.16559">
        <ele>154.91</ele>
        <time>2018-02-16T13:07:27Z</time>
      </trkpt>
      <trkpt lat="44.3686" lon="4.16598">
        <ele>154.91</ele>
        <time>2018-02-16T13:07:48Z</time>
      </trkpt>
      <trkpt lat="44.36856" lon="4.16635">
        <ele>156.35</ele>
        <time>2018-02-16T13:08:10Z</time>
      </trkpt>
      <trkpt lat="44.36857" lon="4.16675">
        <ele>157.31</ele>
        <time>2018-02-16T13:08:45Z</time>
      </trkpt>
      <trkpt lat="44.36882" lon="4.16699">
        <ele>157.31</ele>
        <time>2018-02-16T13:09:12Z</time>
      </trkpt>
      <trkpt lat="44.36917" lon="4.16721">
        <ele>157.31</ele>
        <time>2018-02-16T13:09:54Z</time>
      </trkpt>
      <trkpt lat="44.36949" lon="4.16749">
        <ele>154.91</ele>
        <time>2018-02-16T13:10:25Z</time>
      </trkpt>
      <trkpt lat="44.3697" lon="4.16779">
        <ele>153.47</ele>
        <time>2018-02-16T13:10:55Z</time>
      </trkpt>
      <trkpt lat="44.37" lon="4.16785">
        <ele>152.51</ele>
        <time>2018-02-16T13:11:29Z</time>
      </trkpt>
      <trkpt lat="44.37026" lon="4.16802">
        <ele>151.54</ele>
        <time>2018-02-16T13:11:54Z</time>
      </trkpt>
      <trkpt lat="44.37045" lon="4.16835">
        <ele>148.66</ele>
        <time>2018-02-16T13:12:19Z</time>
      </trkpt>
      <trkpt lat="44.37057" lon="4.16876">
        <ele>145.3</ele>
        <time>2018-02-16T13:12:50Z</time>
      </trkpt>
      <trkpt lat="44.37065" lon="4.16908">
        <ele>143.37</ele>
        <time>2018-02-16T13:13:36Z</time>
      </trkpt>
      <trkpt lat="44.37067" lon="4.16923">
        <ele>142.89</ele>
        <time>2018-02-16T13:14:45Z</time>
      </trkpt>
      <trkpt lat="44.37085" lon="4.16955">
        <ele>141.45</ele>
        <time>2018-02-16T13:15:08Z</time>
      </trkpt>
      <trkpt lat="44.37102" lon="4.16988">
        <ele>140.49</ele>
        <time>2018-02-16T13:15:33Z</time>
      </trkpt>
      <trkpt lat="44.37117" lon="4.17022">
        <ele>140.01</ele>
        <time>2018-02-16T13:16:01Z</time>
      </trkpt>
      <trkpt lat="44.37132" lon="4.17056">
        <ele>140.01</ele>
        <time>2018-02-16T13:16:27Z</time>
      </trkpt>
      <trkpt lat="44.37151" lon="4.17083">
        <ele>140.01</ele>
        <time>2018-02-16T13:17:02Z</time>
      </trkpt>
      <trkpt lat="44.37175" lon="4.17105">
        <ele>140.01</ele>
        <time>2018-02-16T13:17:27Z</time>
      </trkpt>
      <trkpt lat="44.37202" lon="4.17114">
        <ele>140.01</ele>
        <time>2018-02-16T13:17:54Z</time>
      </trkpt>
      <trkpt lat="44.37233" lon="4.17116">
        <ele>140.01</ele>
        <time>2018-02-16T13:18:23Z</time>
      </trkpt>
      <trkpt lat="44.37264" lon="4.17115">
        <ele>142.89</ele>
        <time>2018-02-16T13:19:03Z</time>
      </trkpt>
      <trkpt lat="44.37277" lon="4.17151">
        <ele>143.37</ele>
        <time>2018-02-16T13:19:35Z</time>
      </trkpt>
      <trkpt lat="44.37279" lon="4.17195">
        <ele>143.37</ele>
        <time>2018-02-16T13:20:05Z</time>
      </trkpt>
      <trkpt lat="44.37281" lon="4.17238">
        <ele>143.37</ele>
        <time>2018-02-16T13:20:33Z</time>
      </trkpt>
      <trkpt lat="44.37282" lon="4.1728">
        <ele>143.37</ele>
        <time>2018-02-16T13:21:02Z</time>
      </trkpt>
      <trkpt lat="44.37284" lon="4.17324">
        <ele>143.37</ele>
        <time>2018-02-16T13:21:32Z</time>
      </trkpt>
      <trkpt lat="44.37286" lon="4.17368">
        <ele>142.41</ele>
        <time>2018-02-16T13:21:59Z</time>
      </trkpt>
      <trkpt lat="44.37289" lon="4.17408">
        <ele>141.45</ele>
        <time>2018-02-16T13:22:32Z</time>
      </trkpt>
      <trkpt lat="44.37267" lon="4.17411">
        <ele>138.57</ele>
        <time>2018-02-16T13:23:07Z</time>
      </trkpt>
      <trkpt lat="44.37236" lon="4.17406">
        <ele>137.13</ele>
        <time>2018-02-16T13:24:06Z</time>
      </trkpt>
      <trkpt lat="44.37218" lon="4.17397">
        <ele>138.57</ele>
        <time>2018-02-16T13:31:22Z</time>
      </trkpt>
      <trkpt lat="44.37192" lon="4.17396">
        <ele>139.05</ele>
        <time>2018-02-16T13:31:56Z</time>
      </trkpt>
      <trkpt lat="44.37166" lon="4.17409">
        <ele>139.53</ele>
        <time>2018-02-16T13:32:23Z</time>
      </trkpt>
      <trkpt lat="44.37141" lon="4.17428">
        <ele>140.01</ele>
        <time>2018-02-16T13:32:51Z</time>
      </trkpt>
      <trkpt lat="44.37116" lon="4.17448">
        <ele>140.49</ele>
        <time>2018-02-16T13:33:19Z</time>
      </trkpt>
      <trkpt lat="44.3709" lon="4.17454">
        <ele>140.97</ele>
        <time>2018-02-16T13:33:49Z</time>
      </trkpt>
      <trkpt lat="44.37061" lon="4.17447">
        <ele>141.93</ele>
        <time>2018-02-16T13:34:20Z</time>
      </trkpt>
      <trkpt lat="44.37031" lon="4.17442">
        <ele>141.93</ele>
        <time>2018-02-16T13:34:49Z</time>
      </trkpt>
      <trkpt lat="44.37001" lon="4.17436">
        <ele>142.41</ele>
        <time>2018-02-16T13:35:19Z</time>
      </trkpt>
      <trkpt lat="44.36971" lon="4.17428">
        <ele>143.85</ele>
        <time>2018-02-16T13:35:47Z</time>
      </trkpt>
      <trkpt lat="44.36951" lon="4.17451">
        <ele>143.85</ele>
        <time>2018-02-16T13:36:13Z</time>
      </trkpt>
      <trkpt lat="44.36948" lon="4.17491">
        <ele>143.85</ele>
        <time>2018-02-16T13:36:40Z</time>
      </trkpt>
      <trkpt lat="44.36934" lon="4.17518">
        <ele>146.26</ele>
        <time>2018-02-16T13:37:10Z</time>
      </trkpt>
      <trkpt lat="44.36909" lon="4.17529">
        <ele>146.74</ele>
        <time>2018-02-16T13:37:42Z</time>
      </trkpt>
      <trkpt lat="44.3688" lon="4.17534">
        <ele>146.74</ele>
        <time>2018-02-16T13:38:10Z</time>
      </trkpt>
      <trkpt lat="44.36851" lon="4.17542">
        <ele>146.74</ele>
        <time>2018-02-16T13:38:41Z</time>
      </trkpt>
      <trkpt lat="44.36821" lon="4.17549">
        <ele>146.74</ele>
        <time>2018-02-16T13:39:10Z</time>
      </trkpt>
      <trkpt lat="44.36789" lon="4.17556">
        <ele>146.74</ele>
        <time>2018-02-16T13:39:40Z</time>
      </trkpt>
      <trkpt lat="44.36777" lon="4.17592">
        <ele>145.3</ele>
        <time>2018-02-16T13:40:08Z</time>
      </trkpt>
      <trkpt lat="44.3675" lon="4.17596">
        <ele>145.3</ele>
        <time>2018-02-16T13:40:37Z</time>
      </trkpt>
      <trkpt lat="44.36723" lon="4.17589">
        <ele>146.74</ele>
        <time>2018-02-16T13:41:05Z</time>
      </trkpt>
      <trkpt lat="44.36695" lon="4.17582">
        <ele>147.7</ele>
        <time>2018-02-16T13:41:34Z</time>
      </trkpt>
      <trkpt lat="44.36667" lon="4.17576">
        <ele>149.14</ele>
        <time>2018-02-16T13:42:03Z</time>
      </trkpt>
      <trkpt lat="44.36639" lon="4.17557">
        <ele>150.58</ele>
        <time>2018-02-16T13:42:34Z</time>
      </trkpt>
      <trkpt lat="44.36619" lon="4.17519">
        <ele>152.03</ele>
        <time>2018-02-16T13:43:08Z</time>
      </trkpt>
      <trkpt lat="44.36616" lon="4.17478">
        <ele>154.43</ele>
        <time>2018-02-16T13:43:40Z</time>
      </trkpt>
      <trkpt lat="44.36623" lon="4.17442">
        <ele>155.87</ele>
        <time>2018-02-16T13:44:09Z</time>
      </trkpt>
      <trkpt lat="44.36633" lon="4.17403">
        <ele>155.87</ele>
        <time>2018-02-16T13:44:39Z</time>
      </trkpt>
      <trkpt lat="44.36645" lon="4.1737">
        <ele>156.35</ele>
        <time>2018-02-16T13:45:07Z</time>
      </trkpt>
      <trkpt lat="44.36646" lon="4.17327">
        <ele>158.75</ele>
        <time>2018-02-16T13:45:38Z</time>
      </trkpt>
      <trkpt lat="44.36646" lon="4.17289">
        <ele>158.75</ele>
        <time>2018-02-16T13:46:08Z</time>
      </trkpt>
      <trkpt lat="44.36649" lon="4.17249">
        <ele>158.75</ele>
        <time>2018-02-16T13:46:38Z</time>
      </trkpt>
      <trkpt lat="44.36656" lon="4.17208">
        <ele>157.79</ele>
        <time>2018-02-16T13:47:08Z</time>
      </trkpt>
      <trkpt lat="44.36661" lon="4.17168">
        <ele>157.79</ele>
        <time>2018-02-16T13:47:38Z</time>
      </trkpt>
      <trkpt lat="44.36665" lon="4.17124">
        <ele>157.79</ele>
        <time>2018-02-16T13:48:08Z</time>
      </trkpt>
      <trkpt lat="44.36666" lon="4.1709">
        <ele>158.75</ele>
        <time>2018-02-16T13:50:46Z</time>
      </trkpt>
      <trkpt lat="44.3667" lon="4.17">
        <ele>155.87</ele>
        <time>2018-02-16T13:52:30Z</time>
      </trkpt>
      <trkpt lat="44.3667" lon="4.16896">
        <ele>152.99</ele>
        <time>2018-02-16T13:54:30Z</time>
      </trkpt>
      <trkpt lat="44.36674" lon="4.16848">
        <ele>152.51</ele>
        <time>2018-02-16T13:55:06Z</time>
      </trkpt>
      <trkpt lat="44.36679" lon="4.16795">
        <ele>154.91</ele>
        <time>2018-02-16T13:55:44Z</time>
      </trkpt>
      <trkpt lat="44.36693" lon="4.16751">
        <ele>157.31</ele>
        <time>2018-02-16T13:56:19Z</time>
      </trkpt>
      <trkpt lat="44.36708" lon="4.16711">
        <ele>159.24</ele>
        <time>2018-02-16T13:56:55Z</time>
      </trkpt>
      <trkpt lat="44.36707" lon="4.16668">
        <ele>163.08</ele>
        <time>2018-02-16T13:57:33Z</time>
      </trkpt>
      <trkpt lat="44.36707" lon="4.16621">
        <ele>165</ele>
        <time>2018-02-16T13:58:11Z</time>
      </trkpt>
      <trkpt lat="44.3671" lon="4.16575">
        <ele>167.41</ele>
        <time>2018-02-16T13:58:47Z</time>
      </trkpt>
      <trkpt lat="44.36718" lon="4.1653">
        <ele>170.29</ele>
        <time>2018-02-16T13:59:30Z</time>
      </trkpt>
      <trkpt lat="44.36719" lon="4.16481">
        <ele>173.17</ele>
        <time>2018-02-16T14:00:02Z</time>
      </trkpt>
      <trkpt lat="44.36703" lon="4.16443">
        <ele>175.1</ele>
        <time>2018-02-16T14:00:33Z</time>
      </trkpt>
      <trkpt lat="44.36686" lon="4.16399">
        <ele>179.42</ele>
        <time>2018-02-16T14:01:13Z</time>
      </trkpt>
      <trkpt lat="44.36669" lon="4.16351">
        <ele>184.71</ele>
        <time>2018-02-16T14:01:58Z</time>
      </trkpt>
      <trkpt lat="44.36653" lon="4.16298">
        <ele>191.44</ele>
        <time>2018-02-16T14:02:49Z</time>
      </trkpt>
      <trkpt lat="44.36641" lon="4.16252">
        <ele>197.21</ele>
        <time>2018-02-16T14:04:56Z</time>
      </trkpt>
      <trkpt lat="44.36662" lon="4.16213">
        <ele>201.53</ele>
        <time>2018-02-16T14:09:39Z</time>
      </trkpt>
      <trkpt lat="44.36674" lon="4.16157">
        <ele>208.26</ele>
        <time>2018-02-16T14:10:32Z</time>
      </trkpt>
      <trkpt lat="44.36678" lon="4.16102">
        <ele>215.95</ele>
        <time>2018-02-16T14:11:29Z</time>
      </trkpt>
      <trkpt lat="44.36673" lon="4.16059">
        <ele>221.24</ele>
        <time>2018-02-16T14:12:11Z</time>
      </trkpt>
      <trkpt lat="44.36672" lon="4.1602">
        <ele>228.45</ele>
        <time>2018-02-16T14:15:22Z</time>
      </trkpt>
      <trkpt lat="44.36808" lon="4.15705">
        <ele>257.29</ele>
        <time>2018-02-16T14:26:44Z</time>
      </trkpt>
      <trkpt lat="44.3685" lon="4.15574">
        <ele>267.86</ele>
        <time>2018-02-16T14:32:18Z</time>
      </trkpt>
      <trkpt lat="44.36874" lon="4.15567">
        <ele>274.59</ele>
        <time>2018-02-16T14:34:33Z</time>
      </trkpt>
      <trkpt lat="44.36877" lon="4.15614">
        <ele>282.28</ele>
        <time>2018-02-16T14:35:27Z</time>
      </trkpt>
      <trkpt lat="44.3687" lon="4.15671">
        <ele>289.97</ele>
        <time>2018-02-16T14:37:32Z</time>
      </trkpt>
      <trkpt lat="44.36866" lon="4.15715">
        <ele>289.97</ele>
        <time>2018-02-16T14:38:25Z</time>
      </trkpt>
      <trkpt lat="44.3688" lon="4.1575">
        <ele>289.97</ele>
        <time>2018-02-16T14:39:04Z</time>
      </trkpt>
      <trkpt lat="44.36893" lon="4.15736">
        <ele>290.46</ele>
        <time>2018-02-16T14:40:51Z</time>
      </trkpt>
      <trkpt lat="44.36912" lon="4.15703">
        <ele>290.94</ele>
        <time>2018-02-16T14:41:45Z</time>
      </trkpt>
      <trkpt lat="44.3693" lon="4.1568">
        <ele>290.94</ele>
        <time>2018-02-16T14:42:21Z</time>
      </trkpt>
      <trkpt lat="44.36934" lon="4.15648">
        <ele>291.42</ele>
        <time>2018-02-16T14:43:16Z</time>
      </trkpt>
      <trkpt lat="44.36947" lon="4.15618">
        <ele>295.74</ele>
        <time>2018-02-16T14:44:31Z</time>
      </trkpt>
      <trkpt lat="44.36938" lon="4.15597">
        <ele>298.15</ele>
        <time>2018-02-16T14:45:11Z</time>
      </trkpt>
      <trkpt lat="44.36913" lon="4.15609">
        <ele>298.15</ele>
        <time>2018-02-16T14:45:56Z</time>
      </trkpt>
      <trkpt lat="44.36902" lon="4.15626">
        <ele>298.63</ele>
        <time>2018-02-16T14:46:28Z</time>
      </trkpt>
      <trkpt lat="44.36898" lon="4.1563">
        <ele>301.03</ele>
        <time>2018-02-16T14:48:27Z</time>
      </trkpt>
      <trkpt lat="44.36891" lon="4.15663">
        <ele>301.99</ele>
        <time>2018-02-16T14:48:52Z</time>
      </trkpt>
      <trkpt lat="44.36896" lon="4.15688">
        <ele>303.91</ele>
        <time>2018-02-16T14:49:42Z</time>
      </trkpt>
      <trkpt lat="44.36886" lon="4.15697">
        <ele>304.39</ele>
        <time>2018-02-16T14:52:09Z</time>
      </trkpt>
      <trkpt lat="44.36893" lon="4.15685">
        <ele>304.39</ele>
        <time>2018-02-16T14:53:24Z</time>
      </trkpt>
      <trkpt lat="44.36886" lon="4.15662">
        <ele>302.95</ele>
        <time>2018-02-16T14:54:23Z</time>
      </trkpt>
      <trkpt lat="44.36905" lon="4.15642">
        <ele>302.95</ele>
        <time>2018-02-16T14:54:59Z</time>
      </trkpt>
      <trkpt lat="44.3692" lon="4.156">
        <ele>299.11</ele>
        <time>2018-02-16T14:55:44Z</time>
      </trkpt>
      <trkpt lat="44.36929" lon="4.15555">
        <ele>297.18</ele>
        <time>2018-02-16T14:57:54Z</time>
      </trkpt>
      <trkpt lat="44.3694" lon="4.15514">
        <ele>290.94</ele>
        <time>2018-02-16T14:59:12Z</time>
      </trkpt>
      <trkpt lat="44.36916" lon="4.15492">
        <ele>285.65</ele>
        <time>2018-02-16T14:59:49Z</time>
      </trkpt>
      <trkpt lat="44.36893" lon="4.15503">
        <ele>281.8</ele>
        <time>2018-02-16T15:00:34Z</time>
      </trkpt>
      <trkpt lat="44.36871" lon="4.15539">
        <ele>277</ele>
        <time>2018-02-16T15:01:16Z</time>
      </trkpt>
      <trkpt lat="44.36847" lon="4.15561">
        <ele>271.71</ele>
        <time>2018-02-16T15:01:46Z</time>
      </trkpt>
      <trkpt lat="44.36821" lon="4.15537">
        <ele>269.79</ele>
        <time>2018-02-16T15:02:17Z</time>
      </trkpt>
      <trkpt lat="44.36789" lon="4.15517">
        <ele>269.31</ele>
        <time>2018-02-16T15:02:52Z</time>
      </trkpt>
      <trkpt lat="44.36754" lon="4.15522">
        <ele>272.67</ele>
        <time>2018-02-16T15:03:25Z</time>
      </trkpt>
      <trkpt lat="44.36719" lon="4.15527">
        <ele>275.56</ele>
        <time>2018-02-16T15:04:00Z</time>
      </trkpt>
      <trkpt lat="44.36687" lon="4.15527">
        <ele>277</ele>
        <time>2018-02-16T15:04:31Z</time>
      </trkpt>
      <trkpt lat="44.36692" lon="4.15503">
        <ele>281.8</ele>
        <time>2018-02-16T15:05:24Z</time>
      </trkpt>
    </trkseg>
  </trk>
</gpx>